Patriot, Indiana
Current Conditions -  °F | °C
As of 6:52 PM on Saturday 20 Dec 2014 (Local Time) from KCVG Reporting Station
Haze Haze  
Wind Chill: 27°   Ceiling: 1700
Heat Index: 32°   Visibility: 6mi
Dew Point: 24°   Wind: 5mph
Humidity: 73%   Direction: 360°N
Pressure: 30.28"   Gusts: NA
Location:  38.84°N, 84.83°W
Report Text: KCVG 202352Z 36004KT 6SM HZ OVC017 00/M04 A3028 RMK AO2 SLP261 931000 T00001044 10000 20000 51014
Loading
Personal Weather Stations






























Interactive Weather Map New forecast layout! Learn more

10-Day Weather Forecast

Advertisements
Track Severe Weather on mobile